sensor_id;sensor_type;location;lat;lon;timestamp;P1;durP1;ratioP1;P2;durP2;ratioP2
14282;SDS011;7225;59.282;18.344;2023-03-21T00:00:55;0.80;;;0.70;;
14282;SDS011;7225;59.282;18.344;2023-03-21T00:03:23;0.70;;;0.67;;
14282;SDS011;7225;59.282;18.344;2023-03-21T00:05:51;1.13;;;0.97;;
14282;SDS011;7225;59.282;18.344;2023-03-21T00:08:20;1.17;;;0.80;;
14282;SDS011;7225;59.282;18.344;2023-03-21T00:10:55;5.70;;;1.00;;
14282;SDS011;7225;59.282;18.344;2023-03-21T00:13:29;1.40;;;1.00;;
14282;SDS011;7225;59.282;18.344;2023-03-21T00:18:48;1.50;;;1.30;;
14282;SDS011;7225;59.282;18.344;2023-03-21T00:21:18;2.13;;;1.53;;
14282;SDS011;7225;59.282;18.344;2023-03-21T00:24:06;4.37;;;1.37;;
14282;SDS011;7225;59.282;18.344;2023-03-21T00:26:34;4.67;;;1.40;;
14282;SDS011;7225;59.282;18.344;2023-03-21T00:29:01;3.00;;;1.37;;
14282;SDS011;7225;59.282;18.344;2023-03-21T00:31:28;2.23;;;1.50;;
14282;SDS011;7225;59.282;18.344;2023-03-21T00:33:55;3.80;;;1.73;;
14282;SDS011;7225;59.282;18.344;2023-03-21T00:36:22;2.13;;;1.60;;
14282;SDS011;7225;59.282;18.344;2023-03-21T00:38:51;2.50;;;2.17;;
14282;SDS011;7225;59.282;18.344;2023-03-21T00:41:18;4.07;;;1.73;;
14282;SDS011;7225;59.282;18.344;2023-03-21T00:44:05;2.10;;;1.60;;
14282;SDS011;7225;59.282;18.344;2023-03-21T00:46:32;2.13;;;1.70;;
14282;SDS011;7225;59.282;18.344;2023-03-21T00:49:12;2.93;;;1.87;;
14282;SDS011;7225;59.282;18.344;2023-03-21T00:51:39;2.90;;;1.53;;
14282;SDS011;7225;59.282;18.344;2023-03-21T00:54:06;3.17;;;1.70;;
14282;SDS011;7225;59.282;18.344;2023-03-21T00:56:33;3.50;;;2.00;;
14282;SDS011;7225;59.282;18.344;2023-03-21T00:59:00;6.47;;;2.20;;
14282;SDS011;7225;59.282;18.344;2023-03-21T01:01:27;3.07;;;2.17;;
14282;SDS011;7225;59.282;18.344;2023-03-21T01:03:58;2.43;;;2.23;;
14282;SDS011;7225;59.282;18.344;2023-03-21T01:06:36;3.40;;;2.10;;
14282;SDS011;7225;59.282;18.344;2023-03-21T01:09:06;2.30;;;2.10;;
14282;SDS011;7225;59.282;18.344;2023-03-21T01:11:36;5.07;;;2.40;;
14282;SDS011;7225;59.282;18.344;2023-03-21T01:14:03;8.77;;;2.23;;
14282;SDS011;7225;59.282;18.344;2023-03-21T01:16:47;3.30;;;1.90;;
14282;SDS011;7225;59.282;18.344;2023-03-21T01:19:15;3.90;;;2.00;;
14282;SDS011;7225;59.282;18.344;2023-03-21T01:21:54;4.80;;;2.10;;
14282;SDS011;7225;59.282;18.344;2023-03-21T01:24:22;6.87;;;1.83;;
14282;SDS011;7225;59.282;18.344;2023-03-21T01:26:49;4.30;;;1.83;;
14282;SDS011;7225;59.282;18.344;2023-03-21T01:29:16;4.37;;;2.17;;
14282;SDS011;7225;59.282;18.344;2023-03-21T01:31:43;3.10;;;1.60;;
14282;SDS011;7225;59.282;18.344;2023-03-21T01:34:10;4.00;;;1.97;;
14282;SDS011;7225;59.282;18.344;2023-03-21T01:36:37;4.07;;;1.80;;
14282;SDS011;7225;59.282;18.344;2023-03-21T01:39:04;3.67;;;2.20;;
14282;SDS011;7225;59.282;18.344;2023-03-21T01:41:36;12.37;;;2.77;;
14282;SDS011;7225;59.282;18.344;2023-03-21T01:44:12;6.47;;;2.83;;
14282;SDS011;7225;59.282;18.344;2023-03-21T01:46:43;9.87;;;2.70;;
14282;SDS011;7225;59.282;18.344;2023-03-21T01:49:33;9.53;;;2.60;;
14282;SDS011;7225;59.282;18.344;2023-03-21T01:52:05;21.03;;;3.57;;
14282;SDS011;7225;59.282;18.344;2023-03-21T01:54:42;6.37;;;2.90;;
14282;SDS011;7225;59.282;18.344;2023-03-21T01:57:22;4.93;;;2.57;;
14282;SDS011;7225;59.282;18.344;2023-03-21T02:00:12;4.83;;;1.80;;
14282;SDS011;7225;59.282;18.344;2023-03-21T02:02:44;7.30;;;1.83;;
14282;SDS011;7225;59.282;18.344;2023-03-21T02:05:37;3.40;;;2.27;;
14282;SDS011;7225;59.282;18.344;2023-03-21T02:08:13;11.30;;;3.63;;
14282;SDS011;7225;59.282;18.344;2023-03-21T02:10:41;29.30;;;4.50;;
14282;SDS011;7225;59.282;18.344;2023-03-21T02:13:11;10.83;;;2.97;;
14282;SDS011;7225;59.282;18.344;2023-03-21T02:15:39;6.37;;;3.10;;
14282;SDS011;7225;59.282;18.344;2023-03-21T02:24:45;7.80;;;3.07;;
14282;SDS011;7225;59.282;18.344;2023-03-21T02:27:55;12.87;;;3.73;;
14282;SDS011;7225;59.282;18.344;2023-03-21T02:36:17;30.50;;;4.67;;
14282;SDS011;7225;59.282;18.344;2023-03-21T02:41:43;13.20;;;3.83;;
14282;SDS011;7225;59.282;18.344;2023-03-21T02:44:25;8.20;;;2.47;;
14282;SDS011;7225;59.282;18.344;2023-03-21T02:47:36;2.87;;;1.70;;
14282;SDS011;7225;59.282;18.344;2023-03-21T02:50:34;6.60;;;2.07;;
14282;SDS011;7225;59.282;18.344;2023-03-21T02:53:04;16.60;;;2.67;;
14282;SDS011;7225;59.282;18.344;2023-03-21T02:55:34;28.33;;;3.93;;
14282;SDS011;7225;59.282;18.344;2023-03-21T02:58:02;12.60;;;3.53;;
14282;SDS011;7225;59.282;18.344;2023-03-21T03:00:38;12.60;;;4.20;;
14282;SDS011;7225;59.282;18.344;2023-03-21T03:03:08;13.33;;;4.10;;
14282;SDS011;7225;59.282;18.344;2023-03-21T03:06:07;30.63;;;4.47;;
14282;SDS011;7225;59.282;18.344;2023-03-21T03:11:32;13.80;;;3.27;;
14282;SDS011;7225;59.282;18.344;2023-03-21T03:22:47;21.63;;;4.50;;
14282;SDS011;7225;59.282;18.344;2023-03-21T03:25:53;11.70;;;3.90;;
14282;SDS011;7225;59.282;18.344;2023-03-21T03:28:24;18.20;;;4.27;;
14282;SDS011;7225;59.282;18.344;2023-03-21T03:30:55;26.87;;;4.77;;
14282;SDS011;7225;59.282;18.344;2023-03-21T03:33:35;31.37;;;5.20;;
14282;SDS011;7225;59.282;18.344;2023-03-21T03:36:07;12.20;;;4.00;;
14282;SDS011;7225;59.282;18.344;2023-03-21T03:38:53;11.90;;;4.93;;
14282;SDS011;7225;59.282;18.344;2023-03-21T03:41:23;13.57;;;4.77;;
14282;SDS011;7225;59.282;18.344;2023-03-21T03:43:54;8.40;;;4.60;;
14282;SDS011;7225;59.282;18.344;2023-03-21T03:49:09;12.93;;;5.80;;
14282;SDS011;7225;59.282;18.344;2023-03-21T03:54:48;15.60;;;5.60;;
14282;SDS011;7225;59.282;18.344;2023-03-21T03:57:17;11.17;;;5.17;;
14282;SDS011;7225;59.282;18.344;2023-03-21T03:59:45;11.60;;;5.53;;
14282;SDS011;7225;59.282;18.344;2023-03-21T04:02:13;6.90;;;4.77;;
14282;SDS011;7225;59.282;18.344;2023-03-21T04:04:40;10.30;;;4.97;;
14282;SDS011;7225;59.282;18.344;2023-03-21T04:07:07;20.57;;;5.17;;
14282;SDS011;7225;59.282;18.344;2023-03-21T04:09:34;7.40;;;4.90;;
14282;SDS011;7225;59.282;18.344;2023-03-21T04:12:10;19.13;;;4.97;;
14282;SDS011;7225;59.282;18.344;2023-03-21T04:14:38;32.07;;;5.03;;
14282;SDS011;7225;59.282;18.344;2023-03-21T04:17:12;10.23;;;5.17;;
14282;SDS011;7225;59.282;18.344;2023-03-21T04:19:40;20.87;;;4.57;;
14282;SDS011;7225;59.282;18.344;2023-03-21T04:22:07;26.00;;;4.70;;
14282;SDS011;7225;59.282;18.344;2023-03-21T04:24:34;115.60;;;9.03;;
14282;SDS011;7225;59.282;18.344;2023-03-21T04:27:02;17.80;;;4.40;;
14282;SDS011;7225;59.282;18.344;2023-03-21T04:29:33;15.77;;;3.77;;
14282;SDS011;7225;59.282;18.344;2023-03-21T04:32:00;36.20;;;5.33;;
14282;SDS011;7225;59.282;18.344;2023-03-21T04:34:27;147.50;;;12.60;;
14282;SDS011;7225;59.282;18.344;2023-03-21T04:36:54;152.97;;;10.73;;
14282;SDS011;7225;59.282;18.344;2023-03-21T04:39:21;12.63;;;3.87;;
14282;SDS011;7225;59.282;18.344;2023-03-21T04:41:50;14.43;;;3.90;;
14282;SDS011;7225;59.282;18.344;2023-03-21T04:44:17;20.53;;;4.10;;
14282;SDS011;7225;59.282;18.344;2023-03-21T04:46:44;19.53;;;4.67;;
14282;SDS011;7225;59.282;18.344;2023-03-21T04:49:11;9.43;;;3.90;;
14282;SDS011;7225;59.282;18.344;2023-03-21T04:51:38;81.93;;;8.40;;
14282;SDS011;7225;59.282;18.344;2023-03-21T04:54:06;43.80;;;5.93;;
14282;SDS011;7225;59.282;18.344;2023-03-21T04:56:32;26.83;;;4.33;;
14282;SDS011;7225;59.282;18.344;2023-03-21T04:59:04;12.80;;;3.77;;
14282;SDS011;7225;59.282;18.344;2023-03-21T05:01:33;15.20;;;4.27;;
14282;SDS011;7225;59.282;18.344;2023-03-21T05:04:01;178.50;;;12.20;;
14282;SDS011;7225;59.282;18.344;2023-03-21T05:06:29;20.73;;;4.17;;
14282;SDS011;7225;59.282;18.344;2023-03-21T05:08:56;39.83;;;4.17;;
14282;SDS011;7225;59.282;18.344;2023-03-21T05:11:31;103.27;;;7.03;;
14282;SDS011;7225;59.282;18.344;2023-03-21T05:14:01;113.13;;;8.90;;
14282;SDS011;7225;59.282;18.344;2023-03-21T05:16:28;33.03;;;4.17;;
14282;SDS011;7225;59.282;18.344;2023-03-21T05:18:56;43.00;;;4.63;;
14282;SDS011;7225;59.282;18.344;2023-03-21T05:21:29;51.27;;;4.63;;
14282;SDS011;7225;59.282;18.344;2023-03-21T05:24:07;51.07;;;4.67;;
14282;SDS011;7225;59.282;18.344;2023-03-21T05:26:38;95.10;;;7.60;;
14282;SDS011;7225;59.282;18.344;2023-03-21T05:29:05;61.77;;;5.73;;
14282;SDS011;7225;59.282;18.344;2023-03-21T05:31:33;19.03;;;3.10;;
14282;SDS011;7225;59.282;18.344;2023-03-21T05:34:01;130.40;;;9.03;;
14282;SDS011;7225;59.282;18.344;2023-03-21T05:36:29;121.67;;;8.20;;
14282;SDS011;7225;59.282;18.344;2023-03-21T05:38:59;57.33;;;5.60;;
14282;SDS011;7225;59.282;18.344;2023-03-21T05:41:27;31.17;;;4.00;;
14282;SDS011;7225;59.282;18.344;2023-03-21T05:43:54;45.17;;;4.47;;
14282;SDS011;7225;59.282;18.344;2023-03-21T05:46:21;261.43;;;17.63;;
14282;SDS011;7225;59.282;18.344;2023-03-21T05:48:48;86.00;;;6.47;;
14282;SDS011;7225;59.282;18.344;2023-03-21T05:51:15;29.03;;;3.60;;
14282;SDS011;7225;59.282;18.344;2023-03-21T05:53:43;75.87;;;6.97;;
14282;SDS011;7225;59.282;18.344;2023-03-21T05:56:10;176.07;;;10.00;;
14282;SDS011;7225;59.282;18.344;2023-03-21T05:58:37;169.40;;;11.27;;
14282;SDS011;7225;59.282;18.344;2023-03-21T06:01:04;55.77;;;4.83;;
14282;SDS011;7225;59.282;18.344;2023-03-21T06:03:31;39.60;;;4.53;;
14282;SDS011;7225;59.282;18.344;2023-03-21T06:05:59;42.97;;;6.43;;
14282;SDS011;7225;59.282;18.344;2023-03-21T06:08:26;51.93;;;4.60;;
14282;SDS011;7225;59.282;18.344;2023-03-21T06:10:53;99.50;;;7.00;;
14282;SDS011;7225;59.282;18.344;2023-03-21T06:13:20;20.70;;;3.30;;
14282;SDS011;7225;59.282;18.344;2023-03-21T06:15:47;53.53;;;5.87;;
14282;SDS011;7225;59.282;18.344;2023-03-21T06:18:14;84.17;;;7.97;;
14282;SDS011;7225;59.282;18.344;2023-03-21T06:20:41;82.60;;;6.23;;
14282;SDS011;7225;59.282;18.344;2023-03-21T06:23:08;10.13;;;3.20;;
14282;SDS011;7225;59.282;18.344;2023-03-21T06:25:35;39.23;;;4.57;;
14282;SDS011;7225;59.282;18.344;2023-03-21T06:28:03;14.77;;;3.50;;
14282;SDS011;7225;59.282;18.344;2023-03-21T06:30:30;57.03;;;5.47;;
14282;SDS011;7225;59.282;18.344;2023-03-21T06:32:57;65.50;;;6.47;;
14282;SDS011;7225;59.282;18.344;2023-03-21T06:35:23;39.33;;;7.17;;
14282;SDS011;7225;59.282;18.344;2023-03-21T06:37:51;102.93;;;6.43;;
14282;SDS011;7225;59.282;18.344;2023-03-21T06:40:17;106.50;;;7.37;;
14282;SDS011;7225;59.282;18.344;2023-03-21T06:42:44;48.10;;;4.90;;
14282;SDS011;7225;59.282;18.344;2023-03-21T06:45:11;17.90;;;3.40;;
14282;SDS011;7225;59.282;18.344;2023-03-21T06:47:38;123.37;;;10.03;;
14282;SDS011;7225;59.282;18.344;2023-03-21T06:50:06;54.00;;;7.17;;
14282;SDS011;7225;59.282;18.344;2023-03-21T06:52:33;116.27;;;8.53;;
14282;SDS011;7225;59.282;18.344;2023-03-21T06:55:00;119.20;;;9.60;;
14282;SDS011;7225;59.282;18.344;2023-03-21T06:57:27;99.70;;;6.93;;
14282;SDS011;7225;59.282;18.344;2023-03-21T06:59:54;173.10;;;9.93;;
14282;SDS011;7225;59.282;18.344;2023-03-21T07:02:21;201.27;;;15.93;;
14282;SDS011;7225;59.282;18.344;2023-03-21T07:04:48;69.33;;;5.70;;
14282;SDS011;7225;59.282;18.344;2023-03-21T07:07:15;60.90;;;6.37;;
14282;SDS011;7225;59.282;18.344;2023-03-21T07:09:42;121.73;;;7.87;;
14282;SDS011;7225;59.282;18.344;2023-03-21T07:12:09;116.40;;;7.73;;
14282;SDS011;7225;59.282;18.344;2023-03-21T07:14:36;58.57;;;6.30;;
14282;SDS011;7225;59.282;18.344;2023-03-21T07:17:03;112.47;;;7.70;;
14282;SDS011;7225;59.282;18.344;2023-03-21T07:19:30;138.97;;;10.43;;
14282;SDS011;7225;59.282;18.344;2023-03-21T07:21:57;154.57;;;12.57;;
14282;SDS011;7225;59.282;18.344;2023-03-21T07:24:25;150.73;;;10.57;;
14282;SDS011;7225;59.282;18.344;2023-03-21T07:26:52;11.30;;;3.90;;
14282;SDS011;7225;59.282;18.344;2023-03-21T07:29:19;43.40;;;4.67;;
14282;SDS011;7225;59.282;18.344;2023-03-21T07:31:48;75.33;;;8.87;;
14282;SDS011;7225;59.282;18.344;2023-03-21T07:34:15;59.43;;;6.00;;
14282;SDS011;7225;59.282;18.344;2023-03-21T07:36:44;59.30;;;9.93;;
14282;SDS011;7225;59.282;18.344;2023-03-21T07:39:11;117.03;;;8.00;;
14282;SDS011;7225;59.282;18.344;2023-03-21T07:41:38;169.87;;;9.33;;
14282;SDS011;7225;59.282;18.344;2023-03-21T07:44:05;20.03;;;5.63;;
14282;SDS011;7225;59.282;18.344;2023-03-21T07:46:37;110.80;;;8.97;;
14282;SDS011;7225;59.282;18.344;2023-03-21T07:49:04;97.73;;;8.43;;
14282;SDS011;7225;59.282;18.344;2023-03-21T07:51:31;159.53;;;9.10;;
14282;SDS011;7225;59.282;18.344;2023-03-21T07:54:00;117.70;;;8.60;;
14282;SDS011;7225;59.282;18.344;2023-03-21T07:56:28;73.93;;;8.57;;
14282;SDS011;7225;59.282;18.344;2023-03-21T07:58:55;21.53;;;5.03;;
14282;SDS011;7225;59.282;18.344;2023-03-21T08:01:21;76.03;;;7.77;;
14282;SDS011;7225;59.282;18.344;2023-03-21T08:03:48;52.10;;;6.73;;
14282;SDS011;7225;59.282;18.344;2023-03-21T08:06:16;101.17;;;8.97;;
14282;SDS011;7225;59.282;18.344;2023-03-21T08:08:43;153.47;;;12.17;;
14282;SDS011;7225;59.282;18.344;2023-03-21T08:11:11;94.43;;;9.07;;
14282;SDS011;7225;59.282;18.344;2023-03-21T08:13:38;95.10;;;9.33;;
14282;SDS011;7225;59.282;18.344;2023-03-21T08:16:06;60.33;;;10.77;;
14282;SDS011;7225;59.282;18.344;2023-03-21T08:18:34;10.37;;;5.80;;
14282;SDS011;7225;59.282;18.344;2023-03-21T08:21:01;22.40;;;5.53;;
14282;SDS011;7225;59.282;18.344;2023-03-21T08:23:28;10.07;;;5.20;;
14282;SDS011;7225;59.282;18.344;2023-03-21T08:25:55;7.43;;;5.27;;
14282;SDS011;7225;59.282;18.344;2023-03-21T08:28:23;8.00;;;5.13;;
14282;SDS011;7225;59.282;18.344;2023-03-21T08:30:50;7.93;;;4.73;;
14282;SDS011;7225;59.282;18.344;2023-03-21T08:33:17;13.40;;;5.53;;
14282;SDS011;7225;59.282;18.344;2023-03-21T08:35:44;7.97;;;4.50;;
14282;SDS011;7225;59.282;18.344;2023-03-21T08:38:12;6.57;;;4.13;;
14282;SDS011;7225;59.282;18.344;2023-03-21T08:40:39;6.33;;;4.53;;
14282;SDS011;7225;59.282;18.344;2023-03-21T08:43:06;6.13;;;4.40;;
14282;SDS011;7225;59.282;18.344;2023-03-21T08:45:33;6.37;;;4.77;;
14282;SDS011;7225;59.282;18.344;2023-03-21T08:48:01;7.10;;;4.27;;
14282;SDS011;7225;59.282;18.344;2023-03-21T08:50:28;5.93;;;3.80;;
14282;SDS011;7225;59.282;18.344;2023-03-21T08:52:57;5.40;;;3.90;;
14282;SDS011;7225;59.282;18.344;2023-03-21T08:55:24;4.23;;;3.20;;
14282;SDS011;7225;59.282;18.344;2023-03-21T08:57:51;4.10;;;2.87;;
14282;SDS011;7225;59.282;18.344;2023-03-21T09:00:18;4.33;;;3.50;;
14282;SDS011;7225;59.282;18.344;2023-03-21T09:02:46;4.20;;;3.30;;
14282;SDS011;7225;59.282;18.344;2023-03-21T09:05:16;6.17;;;3.30;;
14282;SDS011;7225;59.282;18.344;2023-03-21T09:07:44;4.10;;;3.20;;
14282;SDS011;7225;59.282;18.344;2023-03-21T09:10:13;4.70;;;3.23;;
14282;SDS011;7225;59.282;18.344;2023-03-21T09:12:51;3.30;;;2.90;;
14282;SDS011;7225;59.282;18.344;2023-03-21T09:15:20;3.10;;;2.70;;
14282;SDS011;7225;59.282;18.344;2023-03-21T09:17:50;3.57;;;2.93;;
14282;SDS011;7225;59.282;18.344;2023-03-21T09:20:20;3.23;;;2.63;;
14282;SDS011;7225;59.282;18.344;2023-03-21T09:22:56;3.03;;;2.53;;
14282;SDS011;7225;59.282;18.344;2023-03-21T09:25:24;2.70;;;2.17;;
14282;SDS011;7225;59.282;18.344;2023-03-21T09:27:57;2.47;;;2.17;;
14282;SDS011;7225;59.282;18.344;2023-03-21T09:30:25;3.03;;;2.60;;
14282;SDS011;7225;59.282;18.344;2023-03-21T09:32:52;2.20;;;2.00;;
14282;SDS011;7225;59.282;18.344;2023-03-21T09:35:21;2.63;;;2.20;;
14282;SDS011;7225;59.282;18.344;2023-03-21T09:37:50;2.33;;;2.13;;
14282;SDS011;7225;59.282;18.344;2023-03-21T09:40:18;2.50;;;2.20;;
14282;SDS011;7225;59.282;18.344;2023-03-21T09:43:14;3.57;;;2.90;;
14282;SDS011;7225;59.282;18.344;2023-03-21T09:48:39;2.57;;;2.33;;
14282;SDS011;7225;59.282;18.344;2023-03-21T09:51:34;2.20;;;1.90;;
14282;SDS011;7225;59.282;18.344;2023-03-21T09:54:07;2.60;;;2.20;;
14282;SDS011;7225;59.282;18.344;2023-03-21T09:56:43;2.10;;;1.90;;
14282;SDS011;7225;59.282;18.344;2023-03-21T09:59:33;2.03;;;1.83;;
14282;SDS011;7225;59.282;18.344;2023-03-21T10:02:12;2.00;;;1.70;;
14282;SDS011;7225;59.282;18.344;2023-03-21T10:04:43;2.67;;;1.90;;
14282;SDS011;7225;59.282;18.344;2023-03-21T10:07:11;2.03;;;1.40;;
14282;SDS011;7225;59.282;18.344;2023-03-21T10:09:43;1.30;;;1.20;;
14282;SDS011;7225;59.282;18.344;2023-03-21T10:12:19;2.77;;;1.50;;
14282;SDS011;7225;59.282;18.344;2023-03-21T10:14:51;1.47;;;1.37;;
14282;SDS011;7225;59.282;18.344;2023-03-21T10:17:33;1.30;;;1.20;;
14282;SDS011;7225;59.282;18.344;2023-03-21T10:20:24;1.20;;;1.00;;
14282;SDS011;7225;59.282;18.344;2023-03-21T10:22:54;3.17;;;1.00;;
14282;SDS011;7225;59.282;18.344;2023-03-21T10:26:04;2.13;;;1.10;;
14282;SDS011;7225;59.282;18.344;2023-03-21T10:28:19;1.10;;;0.97;;
14282;SDS011;7225;59.282;18.344;2023-03-21T10:30:50;0.90;;;0.80;;
14282;SDS011;7225;59.282;18.344;2023-03-21T10:33:31;2.07;;;0.80;;
14282;SDS011;7225;59.282;18.344;2023-03-21T10:36:02;2.83;;;0.57;;
14282;SDS011;7225;59.282;18.344;2023-03-21T10:38:33;0.80;;;0.60;;
14282;SDS011;7225;59.282;18.344;2023-03-21T10:41:01;0.70;;;0.50;;
14282;SDS011;7225;59.282;18.344;2023-03-21T10:46:12;0.30;;;0.30;;
14282;SDS011;7225;59.282;18.344;2023-03-21T10:48:46;0.30;;;0.30;;
14282;SDS011;7225;59.282;18.344;2023-03-21T10:51:22;0.67;;;0.40;;
14282;SDS011;7225;59.282;18.344;2023-03-21T10:53:57;0.60;;;0.43;;
14282;SDS011;7225;59.282;18.344;2023-03-21T10:56:28;0.60;;;0.40;;
14282;SDS011;7225;59.282;18.344;2023-03-21T10:58:57;1.07;;;0.40;;
14282;SDS011;7225;59.282;18.344;2023-03-21T11:01:45;1.07;;;0.40;;
14282;SDS011;7225;59.282;18.344;2023-03-21T11:04:17;0.97;;;0.30;;
14282;SDS011;7225;59.282;18.344;2023-03-21T11:06:54;1.30;;;0.37;;
14282;SDS011;7225;59.282;18.344;2023-03-21T11:12:13;0.70;;;0.20;;
14282;SDS011;7225;59.282;18.344;2023-03-21T11:14:43;0.17;;;0.13;;
14282;SDS011;7225;59.282;18.344;2023-03-21T11:17:21;0.30;;;0.20;;
14282;SDS011;7225;59.282;18.344;2023-03-21T11:19:55;0.50;;;0.40;;
14282;SDS011;7225;59.282;18.344;2023-03-21T11:22:26;0.63;;;0.30;;
14282;SDS011;7225;59.282;18.344;2023-03-21T11:24:58;0.20;;;0.20;;
14282;SDS011;7225;59.282;18.344;2023-03-21T11:27:29;0.87;;;0.20;;
14282;SDS011;7225;59.282;18.344;2023-03-21T11:29:57;0.47;;;0.10;;
14282;SDS011;7225;59.282;18.344;2023-03-21T11:32:33;0.30;;;0.20;;
14282;SDS011;7225;59.282;18.344;2023-03-21T11:35:03;0.30;;;0.20;;
14282;SDS011;7225;59.282;18.344;2023-03-21T11:37:42;0.37;;;0.20;;
14282;SDS011;7225;59.282;18.344;2023-03-21T11:42:46;0.20;;;0.10;;
14282;SDS011;7225;59.282;18.344;2023-03-21T11:45:16;0.33;;;0.17;;
14282;SDS011;7225;59.282;18.344;2023-03-21T11:47:45;0.30;;;0.17;;
14282;SDS011;7225;59.282;18.344;2023-03-21T11:52:50;0.30;;;0.30;;
14282;SDS011;7225;59.282;18.344;2023-03-21T12:03:45;0.53;;;0.20;;
14282;SDS011;7225;59.282;18.344;2023-03-21T12:09:33;0.40;;;0.30;;
14282;SDS011;7225;59.282;18.344;2023-03-21T12:20:25;0.30;;;0.13;;
14282;SDS011;7225;59.282;18.344;2023-03-21T12:25:49;0.30;;;0.20;;
14282;SDS011;7225;59.282;18.344;2023-03-21T12:36:53;0.30;;;0.27;;
14282;SDS011;7225;59.282;18.344;2023-03-21T12:39:32;0.50;;;0.30;;
14282;SDS011;7225;59.282;18.344;2023-03-21T12:42:08;1.23;;;0.30;;
14282;SDS011;7225;59.282;18.344;2023-03-21T12:44:44;0.07;;;0.07;;
14282;SDS011;7225;59.282;18.344;2023-03-21T12:47:18;1.30;;;0.40;;
14282;SDS011;7225;59.282;18.344;2023-03-21T12:49:50;0.70;;;0.20;;
14282;SDS011;7225;59.282;18.344;2023-03-21T12:52:38;0.50;;;0.30;;
14282;SDS011;7225;59.282;18.344;2023-03-21T12:55:24;1.70;;;0.50;;
14282;SDS011;7225;59.282;18.344;2023-03-21T13:00:42;0.47;;;0.20;;
14282;SDS011;7225;59.282;18.344;2023-03-21T13:03:20;0.40;;;0.30;;
14282;SDS011;7225;59.282;18.344;2023-03-21T13:06:06;2.30;;;0.40;;
14282;SDS011;7225;59.282;18.344;2023-03-21T13:08:37;0.20;;;0.20;;
14282;SDS011;7225;59.282;18.344;2023-03-21T13:11:10;0.67;;;0.33;;
14282;SDS011;7225;59.282;18.344;2023-03-21T13:13:46;0.37;;;0.30;;
14282;SDS011;7225;59.282;18.344;2023-03-21T13:16:17;0.50;;;0.30;;
14282;SDS011;7225;59.282;18.344;2023-03-21T13:27:05;2.67;;;0.30;;
14282;SDS011;7225;59.282;18.344;2023-03-21T13:30:03;1.67;;;0.40;;
14282;SDS011;7225;59.282;18.344;2023-03-21T13:32:44;0.63;;;0.30;;
14282;SDS011;7225;59.282;18.344;2023-03-21T13:35:15;0.40;;;0.30;;
14282;SDS011;7225;59.282;18.344;2023-03-21T13:37:58;1.30;;;0.40;;
14282;SDS011;7225;59.282;18.344;2023-03-21T13:40:37;0.80;;;0.40;;
14282;SDS011;7225;59.282;18.344;2023-03-21T13:45:54;0.17;;;0.17;;
14282;SDS011;7225;59.282;18.344;2023-03-21T13:48:28;0.53;;;0.30;;
14282;SDS011;7225;59.282;18.344;2023-03-21T13:51:01;1.27;;;0.20;;
14282;SDS011;7225;59.282;18.344;2023-03-21T14:12:29;1.70;;;0.30;;
14282;SDS011;7225;59.282;18.344;2023-03-21T14:15:07;0.40;;;0.27;;
14282;SDS011;7225;59.282;18.344;2023-03-21T14:17:55;0.40;;;0.20;;
14282;SDS011;7225;59.282;18.344;2023-03-21T14:20:25;0.20;;;0.20;;
14282;SDS011;7225;59.282;18.344;2023-03-21T14:22:54;0.10;;;0.10;;
14282;SDS011;7225;59.282;18.344;2023-03-21T14:25:22;0.23;;;0.20;;
14282;SDS011;7225;59.282;18.344;2023-03-21T14:27:58;1.03;;;0.37;;
14282;SDS011;7225;59.282;18.344;2023-03-21T14:30:28;0.40;;;0.20;;
14282;SDS011;7225;59.282;18.344;2023-03-21T14:35:40;0.20;;;0.20;;
14282;SDS011;7225;59.282;18.344;2023-03-21T14:38:16;0.33;;;0.30;;
14282;SDS011;7225;59.282;18.344;2023-03-21T14:40:50;0.73;;;0.40;;
14282;SDS011;7225;59.282;18.344;2023-03-21T14:43:19;3.87;;;0.43;;
14282;SDS011;7225;59.282;18.344;2023-03-21T14:45:52;0.93;;;0.40;;
14282;SDS011;7225;59.282;18.344;2023-03-21T14:48:28;0.73;;;0.30;;
14282;SDS011;7225;59.282;18.344;2023-03-21T14:50:57;0.83;;;0.30;;
14282;SDS011;7225;59.282;18.344;2023-03-21T14:53:30;0.50;;;0.33;;
14282;SDS011;7225;59.282;18.344;2023-03-21T14:58:47;0.50;;;0.30;;
14282;SDS011;7225;59.282;18.344;2023-03-21T15:01:16;0.20;;;0.20;;
14282;SDS011;7225;59.282;18.344;2023-03-21T15:03:58;0.40;;;0.20;;
14282;SDS011;7225;59.282;18.344;2023-03-21T15:06:26;2.27;;;0.20;;
14282;SDS011;7225;59.282;18.344;2023-03-21T15:08:58;0.20;;;0.20;;
14282;SDS011;7225;59.282;18.344;2023-03-21T15:11:34;1.23;;;0.30;;
14282;SDS011;7225;59.282;18.344;2023-03-21T15:14:05;0.67;;;0.43;;
14282;SDS011;7225;59.282;18.344;2023-03-21T15:16:34;0.63;;;0.43;;
14282;SDS011;7225;59.282;18.344;2023-03-21T15:19:02;0.40;;;0.40;;
14282;SDS011;7225;59.282;18.344;2023-03-21T15:21:40;0.80;;;0.30;;
14282;SDS011;7225;59.282;18.344;2023-03-21T15:24:14;1.93;;;0.50;;
14282;SDS011;7225;59.282;18.344;2023-03-21T15:26:46;2.87;;;2.07;;
14282;SDS011;7225;59.282;18.344;2023-03-21T15:29:15;2.73;;;1.03;;
14282;SDS011;7225;59.282;18.344;2023-03-21T15:31:45;1.70;;;1.03;;
14282;SDS011;7225;59.282;18.344;2023-03-21T15:34:17;2.23;;;1.80;;
14282;SDS011;7225;59.282;18.344;2023-03-21T15:36:54;9.13;;;4.33;;
14282;SDS011;7225;59.282;18.344;2023-03-21T15:39:30;6.93;;;4.53;;
14282;SDS011;7225;59.282;18.344;2023-03-21T15:42:05;3.13;;;1.80;;
14282;SDS011;7225;59.282;18.344;2023-03-21T15:44:48;2.07;;;1.77;;
14282;SDS011;7225;59.282;18.344;2023-03-21T15:50:57;0.70;;;0.70;;
14282;SDS011;7225;59.282;18.344;2023-03-21T15:53:15;0.60;;;0.53;;
14282;SDS011;7225;59.282;18.344;2023-03-21T15:58:14;0.63;;;0.53;;
14282;SDS011;7225;59.282;18.344;2023-03-21T16:00:48;1.10;;;0.50;;
14282;SDS011;7225;59.282;18.344;2023-03-21T16:06:06;0.73;;;0.50;;
14282;SDS011;7225;59.282;18.344;2023-03-21T16:08:37;2.50;;;0.53;;
14282;SDS011;7225;59.282;18.344;2023-03-21T16:11:23;1.80;;;0.70;;
14282;SDS011;7225;59.282;18.344;2023-03-21T16:13:54;1.43;;;0.60;;
14282;SDS011;7225;59.282;18.344;2023-03-21T16:16:23;1.37;;;0.50;;
14282;SDS011;7225;59.282;18.344;2023-03-21T16:18:52;1.87;;;0.50;;
14282;SDS011;7225;59.282;18.344;2023-03-21T16:21:22;1.27;;;0.80;;
14282;SDS011;7225;59.282;18.344;2023-03-21T16:23:52;7.00;;;4.67;;
14282;SDS011;7225;59.282;18.344;2023-03-21T16:26:20;10.87;;;6.50;;
14282;SDS011;7225;59.282;18.344;2023-03-21T16:28:53;5.43;;;3.57;;
14282;SDS011;7225;59.282;18.344;2023-03-21T16:31:21;2.20;;;1.23;;
14282;SDS011;7225;59.282;18.344;2023-03-21T16:33:53;2.13;;;1.17;;
14282;SDS011;7225;59.282;18.344;2023-03-21T16:38:58;2.83;;;0.83;;
14282;SDS011;7225;59.282;18.344;2023-03-21T16:41:25;0.73;;;0.73;;
14282;SDS011;7225;59.282;18.344;2023-03-21T16:43:53;1.13;;;0.90;;
14282;SDS011;7225;59.282;18.344;2023-03-21T16:46:24;0.97;;;0.63;;
14282;SDS011;7225;59.282;18.344;2023-03-21T16:48:53;0.73;;;0.60;;
14282;SDS011;7225;59.282;18.344;2023-03-21T16:51:23;0.90;;;0.80;;
14282;SDS011;7225;59.282;18.344;2023-03-21T16:53:56;1.33;;;1.17;;
14282;SDS011;7225;59.282;18.344;2023-03-21T16:56:35;1.23;;;1.00;;
14282;SDS011;7225;59.282;18.344;2023-03-21T16:59:09;1.40;;;0.87;;
14282;SDS011;7225;59.282;18.344;2023-03-21T17:01:37;1.17;;;1.07;;
14282;SDS011;7225;59.282;18.344;2023-03-21T17:04:07;1.67;;;0.90;;
14282;SDS011;7225;59.282;18.344;2023-03-21T17:06:36;1.00;;;0.80;;
14282;SDS011;7225;59.282;18.344;2023-03-21T17:09:10;1.27;;;1.17;;
14282;SDS011;7225;59.282;18.344;2023-03-21T17:11:39;2.50;;;1.00;;
14282;SDS011;7225;59.282;18.344;2023-03-21T17:14:07;3.47;;;0.80;;
14282;SDS011;7225;59.282;18.344;2023-03-21T17:16:35;1.27;;;1.10;;